createdAt,value
2023-04-28T00:01:16.085Z,3.10
2023-04-28T00:03:44.709Z,2.53
2023-04-28T00:06:14.542Z,2.57
2023-04-28T00:08:42.520Z,2.53
2023-04-28T00:11:10.967Z,3.10
2023-04-28T00:13:39.087Z,2.67
2023-04-28T00:16:07.919Z,2.77
2023-04-28T00:18:35.925Z,2.80
2023-04-28T00:21:03.815Z,3.40
2023-04-28T00:23:33.141Z,2.90
2023-04-28T00:26:01.128Z,2.87
2023-04-28T00:30:59.969Z,3.20
2023-04-28T00:33:27.912Z,2.80
2023-04-28T00:36:00.615Z,3.40
2023-04-28T00:38:28.802Z,3.50
2023-04-28T00:40:58.315Z,3.07
2023-04-28T00:43:26.398Z,3.13
2023-04-28T00:45:54.725Z,4.07
2023-04-28T00:48:23.062Z,3.23
2023-04-28T00:50:51.487Z,3.00
2023-04-28T00:53:19.552Z,3.80
2023-04-28T00:55:48.278Z,3.33
2023-04-28T00:58:17.599Z,3.60
2023-04-28T01:00:45.698Z,3.70
2023-04-28T01:03:13.807Z,4.40
2023-04-28T01:05:42.058Z,4.00
2023-04-28T01:08:16.026Z,4.30
2023-04-28T01:10:45.100Z,3.47
2023-04-28T01:13:23.727Z,4.13
2023-04-28T01:15:52.132Z,3.80
2023-04-28T01:18:20.353Z,3.63
2023-04-28T01:20:48.670Z,3.90
2023-04-28T01:23:17.587Z,3.77
2023-04-28T01:25:47.268Z,3.50
2023-04-28T01:28:15.379Z,4.00
2023-04-28T01:30:43.600Z,4.00
2023-04-28T01:33:11.621Z,3.63
2023-04-28T01:35:39.652Z,3.97
2023-04-28T01:38:07.709Z,3.97
2023-04-28T01:40:35.698Z,3.70
2023-04-28T01:43:05.855Z,3.47
2023-04-28T01:45:33.816Z,3.60
2023-04-28T01:48:01.772Z,3.77
2023-04-28T01:50:29.719Z,3.70
2023-04-28T01:53:34.122Z,4.00
2023-04-28T01:56:14.502Z,3.47
2023-04-28T01:58:44.258Z,3.97
2023-04-28T02:01:13.514Z,4.37
2023-04-28T02:03:42.307Z,4.30
2023-04-28T02:06:10.417Z,4.20
2023-04-28T02:08:38.604Z,4.13
2023-04-28T02:11:06.995Z,4.63
2023-04-28T02:13:35.019Z,4.83
2023-04-28T02:16:04.413Z,4.00
2023-04-28T02:18:32.386Z,4.07
2023-04-28T02:21:09.738Z,4.10
2023-04-28T02:23:37.663Z,4.50
2023-04-28T02:26:07.061Z,3.97
2023-04-28T02:28:35.000Z,4.53
2023-04-28T02:31:08.743Z,4.20
2023-04-28T02:33:37.021Z,4.40
2023-04-28T02:36:06.677Z,4.60
2023-04-28T02:38:34.824Z,4.40
2023-04-28T02:41:04.933Z,4.47
2023-04-28T02:43:33.577Z,4.00
2023-04-28T02:46:01.859Z,4.30
2023-04-28T02:48:31.610Z,4.37
2023-04-28T02:50:59.713Z,5.17
2023-04-28T02:53:28.921Z,4.50
2023-04-28T02:55:57.139Z,4.87
2023-04-28T02:58:25.356Z,5.23
2023-04-28T03:00:53.545Z,5.17
2023-04-28T03:03:22.000Z,5.17
2023-04-28T03:05:51.624Z,5.23
2023-04-28T03:08:20.892Z,5.50
2023-04-28T03:10:48.910Z,5.90
2023-04-28T03:13:17.004Z,5.73
2023-04-28T03:15:45.044Z,5.97
2023-04-28T03:18:13.548Z,5.57
2023-04-28T03:20:41.620Z,6.70
2023-04-28T03:23:11.977Z,6.03
2023-04-28T03:25:40.067Z,6.23
2023-04-28T03:28:08.166Z,6.40
2023-04-28T03:30:36.223Z,7.40
2023-04-28T03:33:04.461Z,6.97
2023-04-28T03:35:32.617Z,7.30
2023-04-28T03:38:00.671Z,7.23
2023-04-28T03:40:30.086Z,7.47
2023-04-28T03:43:18.172Z,7.53
2023-04-28T03:46:00.566Z,7.23
2023-04-28T03:48:28.890Z,7.70
2023-04-28T03:50:57.258Z,7.10
2023-04-28T03:53:26.368Z,7.57
2023-04-28T03:55:56.439Z,7.27
2023-04-28T03:58:24.564Z,7.70
2023-04-28T04:00:52.627Z,9.10
2023-04-28T04:03:21.972Z,8.43
2023-04-28T04:05:50.376Z,7.93
2023-04-28T04:08:19.296Z,8.97
2023-04-28T04:10:47.336Z,7.90
2023-04-28T04:13:17.342Z,8.13
2023-04-28T04:15:45.763Z,7.93
2023-04-28T04:18:14.861Z,8.90
2023-04-28T04:21:08.706Z,8.20
2023-04-28T04:23:37.117Z,8.10
2023-04-28T04:26:05.230Z,7.47
2023-04-28T04:28:34.874Z,7.50
2023-04-28T04:31:03.582Z,6.73
2023-04-28T04:33:31.847Z,7.10
2023-04-28T04:36:00.143Z,6.87
2023-04-28T04:38:28.334Z,6.60
2023-04-28T04:40:58.015Z,6.87
2023-04-28T04:43:26.089Z,6.67
2023-04-28T04:45:55.861Z,6.80
2023-04-28T04:48:24.057Z,7.23
2023-04-28T04:50:52.100Z,6.40
2023-04-28T04:53:20.779Z,7.73
2023-04-28T04:55:48.846Z,6.90
2023-04-28T04:58:17.980Z,6.70
2023-04-28T05:01:02.523Z,7.83
2023-04-28T05:03:30.799Z,7.83
2023-04-28T05:06:00.105Z,7.63
2023-04-28T05:08:41.598Z,7.03
2023-04-28T05:11:09.811Z,7.43
2023-04-28T05:13:37.866Z,6.83
2023-04-28T05:16:08.108Z,6.63
2023-04-28T05:18:59.230Z,7.60
2023-04-28T05:21:27.524Z,7.13
2023-04-28T05:23:56.016Z,7.53
2023-04-28T05:26:24.665Z,8.80
2023-04-28T05:28:56.002Z,8.53
2023-04-28T05:31:25.436Z,8.03
2023-04-28T05:33:54.561Z,8.63
2023-04-28T05:36:22.630Z,8.27
2023-04-28T05:38:50.745Z,8.37
2023-04-28T05:41:19.617Z,9.27
2023-04-28T05:43:49.740Z,8.43
2023-04-28T05:46:29.164Z,9.87
2023-04-28T05:49:01.045Z,9.30
2023-04-28T05:51:34.820Z,9.60
2023-04-28T05:54:03.637Z,9.10
2023-04-28T05:56:34.427Z,8.37
2023-04-28T05:59:04.524Z,8.40
2023-04-28T06:01:33.235Z,8.57
2023-04-28T06:04:02.681Z,7.87
2023-04-28T06:06:32.211Z,7.73
2023-04-28T06:09:00.741Z,8.33
2023-04-28T06:11:28.771Z,7.70
2023-04-28T06:13:56.803Z,6.87
2023-04-28T06:16:26.641Z,7.60
2023-04-28T06:18:54.814Z,7.10
2023-04-28T06:21:25.372Z,7.47
2023-04-28T06:23:53.498Z,7.00
2023-04-28T06:26:21.766Z,6.50
2023-04-28T06:28:50.536Z,6.97
2023-04-28T06:31:18.698Z,6.43
2023-04-28T06:33:46.907Z,6.07
2023-04-28T06:36:16.880Z,6.60
2023-04-28T06:38:46.588Z,6.57
2023-04-28T06:41:14.705Z,6.40
2023-04-28T06:43:45.913Z,6.77
2023-04-28T06:46:23.755Z,5.97
2023-04-28T06:48:52.275Z,6.60
2023-04-28T06:51:20.257Z,6.00
2023-04-28T06:53:51.404Z,6.13
2023-04-28T06:56:19.882Z,5.73
2023-04-28T06:58:47.931Z,6.60
2023-04-28T07:01:16.138Z,5.93
2023-04-28T07:03:44.435Z,5.97
2023-04-28T07:06:13.025Z,5.47
2023-04-28T07:08:41.217Z,5.87
2023-04-28T07:11:10.622Z,6.63
2023-04-28T07:13:38.692Z,5.93
2023-04-28T07:16:07.100Z,6.23
2023-04-28T07:18:35.566Z,5.40
2023-04-28T07:21:05.426Z,5.57
2023-04-28T07:23:33.989Z,5.00
2023-04-28T07:26:02.004Z,4.80
2023-04-28T07:28:31.489Z,4.63
2023-04-28T07:30:59.575Z,4.83
2023-04-28T07:33:28.039Z,4.30
2023-04-28T07:35:56.306Z,5.07
2023-04-28T07:38:24.388Z,4.60
2023-04-28T07:43:25.854Z,4.50
2023-04-28T07:45:55.342Z,3.87
2023-04-28T07:48:23.503Z,4.67
2023-04-28T07:50:51.775Z,4.43
2023-04-28T07:53:20.006Z,4.63
2023-04-28T07:55:47.980Z,4.40
2023-04-28T07:58:16.055Z,4.30
2023-04-28T08:00:44.069Z,5.27
2023-04-28T08:03:13.769Z,5.13
2023-04-28T08:05:42.294Z,5.07
2023-04-28T08:08:10.442Z,5.00
2023-04-28T08:10:40.528Z,5.07
2023-04-28T08:13:08.762Z,4.80
2023-04-28T08:15:37.030Z,4.90
2023-04-28T08:18:05.310Z,4.37
2023-04-28T08:20:34.895Z,4.37
2023-04-28T08:23:03.445Z,5.20
2023-04-28T08:25:31.459Z,5.13
2023-04-28T08:28:00.184Z,4.67
2023-04-28T08:30:28.192Z,4.73
2023-04-28T08:32:56.514Z,4.60
2023-04-28T08:35:24.591Z,4.40
2023-04-28T08:37:54.658Z,4.90
2023-04-28T08:40:24.284Z,4.30
2023-04-28T08:42:52.607Z,4.40
2023-04-28T08:45:22.061Z,5.30
2023-04-28T08:47:50.835Z,4.77
2023-04-28T08:50:22.856Z,5.60
2023-04-28T08:52:53.952Z,4.60
2023-04-28T08:55:22.806Z,5.17
2023-04-28T08:57:51.501Z,4.50
2023-04-28T09:00:19.824Z,4.53
2023-04-28T09:02:48.186Z,5.40
2023-04-28T09:05:16.610Z,5.00
2023-04-28T09:07:47.189Z,5.13
2023-04-28T09:10:21.706Z,5.00
2023-04-28T09:12:52.780Z,4.93
2023-04-28T09:15:29.245Z,5.43
2023-04-28T09:17:58.838Z,5.30
2023-04-28T09:20:28.702Z,5.17
2023-04-28T09:22:57.521Z,5.07
2023-04-28T09:25:27.959Z,4.90
2023-04-28T09:27:55.964Z,4.90
2023-04-28T09:30:41.840Z,4.80
2023-04-28T09:33:11.460Z,3.97
2023-04-28T09:35:43.641Z,3.97
2023-04-28T09:38:11.963Z,4.40
2023-04-28T09:40:56.055Z,4.17
2023-04-28T09:43:25.351Z,4.13
2023-04-28T09:45:53.637Z,4.73
2023-04-28T09:48:29.081Z,4.10
2023-04-28T09:50:57.421Z,4.03
2023-04-28T09:53:25.724Z,4.20
2023-04-28T09:55:56.873Z,4.40
2023-04-28T09:58:26.054Z,4.63
2023-04-28T10:00:56.143Z,4.27
2023-04-28T10:03:28.464Z,4.23
2023-04-28T10:05:58.589Z,4.20
2023-04-28T10:08:28.249Z,4.03
2023-04-28T10:10:58.591Z,4.20
2023-04-28T10:13:26.787Z,3.93
2023-04-28T10:15:56.065Z,3.50
2023-04-28T10:18:24.745Z,3.50
2023-04-28T10:20:58.259Z,3.07
2023-04-28T10:23:49.062Z,3.30
2023-04-28T10:26:19.869Z,3.87
2023-04-28T10:28:48.511Z,3.70
2023-04-28T10:31:17.776Z,4.20
2023-04-28T10:33:46.138Z,4.57
2023-04-28T10:36:52.766Z,4.93
2023-04-28T10:39:21.413Z,4.47
2023-04-28T10:41:49.928Z,3.80
2023-04-28T10:44:42.994Z,3.60
2023-04-28T10:47:12.228Z,3.23
2023-04-28T10:50:11.730Z,3.27
2023-04-28T10:52:53.615Z,3.20
2023-04-28T10:55:30.730Z,3.50
2023-04-28T10:58:34.039Z,3.73
2023-04-28T11:01:27.768Z,3.63
2023-04-28T11:04:03.189Z,3.10
2023-04-28T11:06:34.384Z,3.10
2023-04-28T11:09:05.305Z,2.93
2023-04-28T11:11:35.152Z,3.40
2023-04-28T11:14:43.262Z,4.90
2023-04-28T11:17:13.601Z,5.67
2023-04-28T11:19:43.404Z,6.00
2023-04-28T11:22:15.845Z,5.57
2023-04-28T11:24:57.196Z,5.30
2023-04-28T11:27:26.012Z,4.93
2023-04-28T11:29:54.438Z,4.90
2023-04-28T11:32:28.443Z,3.70
2023-04-28T11:34:56.602Z,3.60
2023-04-28T11:37:24.847Z,3.67
2023-04-28T11:39:54.349Z,3.33
2023-04-28T11:42:22.408Z,3.43
2023-04-28T11:44:52.068Z,3.90
2023-04-28T11:47:30.775Z,3.80
2023-04-28T11:49:58.988Z,3.30
2023-04-28T11:52:27.649Z,3.70
2023-04-28T11:54:57.752Z,4.10
2023-04-28T11:57:26.855Z,3.73
2023-04-28T11:59:55.105Z,3.80
2023-04-28T12:02:29.906Z,3.67
2023-04-28T12:04:58.666Z,3.60
2023-04-28T12:07:26.889Z,3.93
2023-04-28T12:10:15.721Z,4.30
2023-04-28T12:15:15.077Z,4.27
2023-04-28T12:17:44.390Z,4.00
2023-04-28T12:20:13.940Z,4.10
2023-04-28T12:22:46.732Z,4.03
2023-04-28T12:25:18.196Z,3.63
2023-04-28T12:28:02.413Z,3.60
2023-04-28T12:30:34.240Z,4.03
2023-04-28T12:33:02.517Z,3.20
2023-04-28T12:35:31.103Z,4.07
2023-04-28T12:37:59.476Z,3.73
2023-04-28T12:40:28.903Z,3.27
2023-04-28T12:42:57.312Z,3.80
2023-04-28T12:45:25.416Z,3.30
2023-04-28T12:47:53.626Z,3.50
2023-04-28T12:50:21.852Z,2.60
2023-04-28T12:52:49.845Z,3.00
2023-04-28T12:55:18.003Z,2.70
2023-04-28T12:57:47.400Z,2.40
2023-04-28T13:00:18.061Z,2.27
2023-04-28T13:02:46.641Z,2.57
2023-04-28T13:05:15.506Z,2.40
2023-04-28T13:07:44.104Z,2.10
2023-04-28T13:10:13.549Z,2.40
2023-04-28T13:12:41.705Z,1.73
2023-04-28T13:15:12.819Z,1.80
2023-04-28T13:17:41.132Z,1.70
2023-04-28T13:20:10.597Z,1.97
2023-04-28T13:22:38.713Z,1.83
2023-04-28T13:25:07.804Z,2.10
2023-04-28T13:27:37.528Z,1.53
2023-04-28T13:30:06.837Z,2.23
2023-04-28T13:32:36.437Z,3.60
2023-04-28T13:35:04.891Z,3.43
2023-04-28T13:37:33.147Z,4.00
2023-04-28T13:40:04.013Z,4.13
2023-04-28T13:42:32.283Z,4.27
2023-04-28T13:45:00.429Z,5.07
2023-04-28T13:47:29.107Z,5.07
2023-04-28T13:50:00.174Z,4.13
2023-04-28T13:52:28.251Z,4.20
2023-04-28T13:54:56.280Z,4.30
2023-04-28T13:57:24.431Z,3.60
2023-04-28T13:59:52.527Z,3.90
2023-04-28T14:02:20.749Z,3.53
2023-04-28T14:04:50.757Z,3.53
2023-04-28T14:07:20.702Z,4.50
2023-04-28T14:09:48.855Z,4.17
2023-04-28T14:12:16.958Z,3.97
2023-04-28T14:14:45.310Z,4.23
2023-04-28T14:17:13.715Z,4.03
2023-04-28T14:19:41.793Z,4.10
2023-04-28T14:22:10.004Z,3.93
2023-04-28T14:24:39.588Z,4.13
2023-04-28T14:27:08.262Z,3.70
2023-04-28T14:29:36.360Z,3.93
2023-04-28T14:32:04.632Z,3.97
2023-04-28T14:34:32.868Z,3.90
2023-04-28T14:37:01.056Z,3.67
2023-04-28T14:39:29.190Z,3.57
2023-04-28T14:41:58.874Z,3.67
2023-04-28T14:44:27.229Z,3.27
2023-04-28T14:46:56.297Z,3.10
2023-04-28T14:49:24.426Z,3.23
2023-04-28T14:51:52.507Z,4.63
2023-04-28T14:54:21.804Z,3.20
2023-04-28T14:56:50.248Z,2.70
2023-04-28T14:59:20.532Z,2.70
2023-04-28T15:01:50.655Z,2.60
2023-04-28T15:04:18.858Z,1.87
2023-04-28T15:06:47.820Z,1.60
2023-04-28T15:09:16.275Z,1.50
2023-04-28T15:11:44.382Z,1.60
2023-04-28T15:14:12.538Z,1.47
2023-04-28T15:16:42.552Z,1.50
2023-04-28T15:19:10.697Z,1.40
2023-04-28T15:21:38.786Z,1.27
2023-04-28T15:24:07.271Z,1.70
2023-04-28T15:26:35.388Z,1.33
2023-04-28T15:29:03.481Z,1.50
2023-04-28T15:31:31.616Z,1.43
2023-04-28T15:34:01.268Z,1.03
2023-04-28T15:36:29.656Z,1.10
2023-04-28T15:38:58.082Z,0.90
2023-04-28T15:41:26.525Z,0.90
2023-04-28T15:43:55.938Z,1.10
2023-04-28T15:46:24.390Z,1.10
2023-04-28T15:48:52.723Z,1.00
2023-04-28T15:51:24.499Z,1.00
2023-04-28T15:53:55.696Z,1.00
2023-04-28T15:56:24.877Z,1.40
2023-04-28T15:58:53.486Z,1.10
2023-04-28T16:01:22.513Z,0.90
2023-04-28T16:03:51.065Z,0.80
2023-04-28T16:06:19.535Z,1.07
2023-04-28T16:08:49.037Z,0.80
2023-04-28T16:11:20.413Z,0.70
2023-04-28T16:13:49.276Z,0.60
2023-04-28T16:16:17.868Z,0.67
2023-04-28T16:18:46.063Z,0.60
2023-04-28T16:21:17.297Z,0.63
2023-04-28T16:23:45.447Z,0.50
2023-04-28T16:26:15.106Z,0.90
2023-04-28T16:28:43.168Z,1.53
2023-04-28T16:31:11.445Z,1.10
2023-04-28T16:33:39.513Z,1.30
2023-04-28T16:36:08.485Z,1.70
2023-04-28T16:38:36.624Z,2.07
2023-04-28T16:41:04.729Z,2.03
2023-04-28T16:43:36.282Z,2.10
2023-04-28T16:46:04.656Z,1.80
2023-04-28T16:48:32.838Z,1.90
2023-04-28T16:51:08.209Z,2.27
2023-04-28T16:53:36.645Z,2.30
2023-04-28T16:56:04.992Z,2.10
2023-04-28T16:58:34.438Z,1.80
2023-04-28T17:01:02.742Z,2.43
2023-04-28T17:03:33.827Z,2.50
2023-04-28T17:06:02.553Z,2.50
2023-04-28T17:08:30.666Z,2.50
2023-04-28T17:10:58.712Z,1.83
2023-04-28T17:13:26.873Z,1.90
2023-04-28T17:15:58.528Z,2.17
2023-04-28T17:18:26.934Z,2.30
2023-04-28T17:20:55.897Z,2.20
2023-04-28T17:23:23.966Z,2.00
2023-04-28T17:25:51.967Z,2.17
2023-04-28T17:28:20.008Z,1.90
2023-04-28T17:30:48.220Z,1.93
2023-04-28T17:33:17.962Z,1.80
2023-04-28T17:35:46.202Z,1.87
2023-04-28T17:38:14.373Z,1.90
2023-04-28T17:40:44.774Z,1.77
2023-04-28T17:43:12.841Z,1.60
2023-04-28T17:45:41.664Z,1.90
2023-04-28T17:48:09.799Z,1.60
2023-04-28T17:50:39.491Z,1.50
2023-04-28T17:53:07.808Z,1.57
2023-04-28T17:55:35.983Z,1.37
2023-04-28T17:58:04.061Z,1.30
2023-04-28T18:00:32.324Z,1.30
2023-04-28T18:03:03.452Z,1.13
2023-04-28T18:05:32.485Z,1.00
2023-04-28T18:08:03.923Z,1.20
2023-04-28T18:10:32.164Z,1.27
2023-04-28T18:13:00.577Z,1.30
2023-04-28T18:15:29.435Z,1.37
2023-04-28T18:17:57.727Z,1.40
2023-04-28T18:20:26.224Z,1.60
2023-04-28T18:22:54.286Z,1.60
2023-04-28T18:25:24.356Z,1.53
2023-04-28T18:27:53.961Z,1.60
2023-04-28T18:30:22.348Z,1.37
2023-04-28T18:32:51.393Z,1.30
2023-04-28T18:35:19.845Z,1.47
2023-04-28T18:37:48.292Z,1.60
2023-04-28T18:40:16.823Z,1.30
2023-04-28T18:42:46.272Z,1.40
2023-04-28T18:45:15.092Z,1.20
2023-04-28T18:47:43.304Z,1.00
2023-04-28T18:50:11.630Z,1.30
2023-04-28T18:52:39.666Z,1.23
2023-04-28T18:55:08.678Z,1.20
2023-04-28T18:57:36.799Z,1.20
2023-04-28T19:00:07.142Z,0.90
2023-04-28T19:02:35.302Z,1.00
2023-04-28T19:05:05.579Z,1.27
2023-04-28T19:07:33.936Z,1.13
2023-04-28T19:10:02.021Z,0.77
2023-04-28T19:12:30.004Z,1.10
2023-04-28T19:14:58.019Z,1.00
2023-04-28T19:17:28.010Z,1.10
2023-04-28T19:19:57.127Z,0.90
2023-04-28T19:22:32.516Z,0.90
2023-04-28T19:25:01.282Z,0.80
2023-04-28T19:27:32.184Z,1.10
2023-04-28T19:30:00.494Z,0.90
2023-04-28T19:32:30.292Z,1.10
2023-04-28T19:34:58.412Z,1.03
2023-04-28T19:37:26.927Z,1.30
2023-04-28T19:39:55.155Z,1.30
2023-04-28T19:42:23.347Z,1.10
2023-04-28T19:44:55.271Z,1.07
2023-04-28T19:47:26.863Z,1.00
2023-04-28T19:49:56.570Z,1.10
2023-04-28T19:52:24.666Z,1.10
2023-04-28T19:54:53.317Z,1.40
2023-04-28T19:57:22.011Z,1.20
2023-04-28T19:59:50.619Z,1.30
2023-04-28T20:02:21.335Z,1.20
2023-04-28T20:04:50.297Z,1.30
2023-04-28T20:07:20.966Z,1.30
2023-04-28T20:09:49.348Z,1.60
2023-04-28T20:12:17.871Z,1.20
2023-04-28T20:14:46.646Z,1.40
2023-04-28T20:17:15.365Z,1.70
2023-04-28T20:19:44.319Z,1.60
2023-04-28T20:22:12.518Z,1.50
2023-04-28T20:24:42.451Z,1.47
2023-04-28T20:27:12.106Z,1.07
2023-04-28T20:29:40.318Z,1.17
2023-04-28T20:32:10.566Z,1.57
2023-04-28T20:34:39.455Z,1.60
2023-04-28T20:37:08.139Z,1.60
2023-04-28T20:39:36.080Z,1.90
2023-04-28T20:42:06.145Z,1.67
2023-04-28T20:44:34.536Z,1.57
2023-04-28T20:47:02.676Z,1.60
2023-04-28T20:49:33.871Z,1.50
2023-04-28T20:52:05.968Z,1.50
2023-04-28T20:54:35.602Z,2.00
2023-04-28T20:57:05.329Z,1.70
2023-04-28T20:59:33.802Z,1.77
2023-04-28T21:02:01.901Z,1.80
2023-04-28T21:04:30.039Z,1.60
2023-04-28T21:06:58.348Z,1.80
2023-04-28T21:09:26.710Z,1.80
2023-04-28T21:11:55.006Z,1.40
2023-04-28T21:14:24.829Z,1.50
2023-04-28T21:16:55.138Z,1.50
2023-04-28T21:19:23.484Z,1.70
2023-04-28T21:21:51.454Z,1.60
2023-04-28T21:24:19.712Z,1.93
2023-04-28T21:26:47.803Z,1.47
2023-04-28T21:29:18.384Z,1.60
2023-04-28T21:31:48.214Z,1.30
2023-04-28T21:34:18.837Z,1.50
2023-04-28T21:36:46.874Z,1.70
2023-04-28T21:39:14.949Z,1.40
2023-04-28T21:41:42.960Z,1.57
2023-04-28T21:44:11.430Z,1.70
2023-04-28T21:46:40.727Z,1.50
2023-04-28T21:49:10.178Z,1.50
2023-04-28T21:51:39.293Z,1.53
2023-04-28T21:54:08.348Z,1.40
2023-04-28T21:56:36.373Z,1.43
2023-04-28T21:59:04.538Z,1.60
2023-04-28T22:01:32.672Z,1.60
2023-04-28T22:04:02.297Z,1.60
2023-04-28T22:06:32.445Z,1.70
2023-04-28T22:09:01.449Z,1.87
2023-04-28T22:11:29.816Z,1.90
2023-04-28T22:13:57.826Z,2.23
2023-04-28T22:16:25.812Z,2.20
2023-04-28T22:18:53.958Z,2.60
2023-04-28T22:21:22.026Z,2.50
2023-04-28T22:23:51.477Z,2.63
2023-04-28T22:26:29.238Z,2.40
2023-04-28T22:28:57.347Z,2.50
2023-04-28T22:31:25.484Z,2.50
2023-04-28T22:33:53.758Z,2.30
2023-04-28T22:36:21.850Z,2.80
2023-04-28T22:38:51.632Z,3.10
2023-04-28T22:41:19.621Z,2.50
2023-04-28T22:43:48.423Z,3.20
2023-04-28T22:46:19.343Z,3.10
2023-04-28T22:48:47.581Z,3.20
2023-04-28T22:51:15.721Z,3.33
2023-04-28T22:53:43.730Z,3.20
2023-04-28T22:56:13.138Z,3.60
2023-04-28T22:58:41.267Z,3.23
2023-04-28T23:01:09.458Z,3.90
2023-04-28T23:03:38.719Z,3.60
2023-04-28T23:06:07.019Z,3.60
2023-04-28T23:08:35.239Z,3.60
2023-04-28T23:11:03.291Z,3.73
2023-04-28T23:13:32.739Z,4.40
2023-04-28T23:16:01.338Z,4.53
2023-04-28T23:18:32.704Z,4.20
2023-04-28T23:21:00.905Z,4.27
2023-04-28T23:23:28.891Z,4.33
2023-04-28T23:25:56.961Z,4.93
2023-04-28T23:28:25.161Z,4.53
2023-04-28T23:30:54.687Z,4.97
2023-04-28T23:33:22.920Z,7.47
2023-04-28T23:35:51.376Z,7.70
2023-04-28T23:38:19.393Z,7.67
2023-04-28T23:40:47.363Z,8.20
2023-04-28T23:43:15.326Z,7.93
2023-04-28T23:45:43.365Z,8.00
2023-04-28T23:48:12.743Z,8.10
2023-04-28T23:50:40.707Z,7.80
2023-04-28T23:53:08.741Z,7.37
2023-04-28T23:55:36.844Z,7.60
2023-04-28T23:58:04.865Z,8.20
